Time;durP1;ratioP1;P1;durP2;ratioP2;P2;SDS_P1;SDS_P2;PMS_P1;PMS_P2;Temp;Humidity;BMP_temperature;BMP_pressure;BME280_temperature;BME280_humidity;BME280_pressure;Samples;Min_cycle;Max_cycle;Signal;HPM_P1;HPM_P2
2022/08/30 05:28:48;;;;;;;9.20;8.30;;;;;;;;;;3065087;28;20235;-96
2022/08/30 05:31:16;;;;;;;14.40;9.57;;;;;;;;;;5094108;28;20289;-93
2022/08/30 05:33:44;;;;;;;10.63;8.93;;;;;;;;;;5094357;28;20208;-94
2022/08/30 05:36:13;;;;;;;11.03;8.93;;;;;;;;;;5093990;28;20200;-94
2022/08/30 05:38:40;;;;;;;9.90;8.90;;;;;;;;;;5094389;28;20205;-95
2022/08/30 05:41:07;;;;;;;12.37;8.80;;;;;;;;;;5094228;28;20671;-94
2022/08/30 05:43:35;;;;;;;10.20;8.47;;;;;;;;;;5094397;28;20207;-94
2022/08/30 05:46:06;;;;;;;12.77;8.53;;;;;;;;;;5093914;28;20211;-94
2022/08/30 05:48:33;;;;;;;9.80;8.70;;;;;;;;;;5094310;28;20204;-93
2022/08/30 05:51:05;;;;;;;9.03;7.97;;;;;;;;;;5094186;28;21243;-95
2022/08/30 05:53:32;;;;;;;10.23;7.70;;;;;;;;;;5095953;28;20208;-94
2022/08/30 05:56:01;;;;;;;12.90;8.90;;;;;;;;;;5097455;28;20207;-95
2022/08/30 05:58:28;;;;;;;13.43;8.43;;;;;;;;;;5095391;28;20200;-94
2022/08/30 06:00:55;;;;;;;9.77;8.87;;;;;;;;;;5095563;28;20200;-94
2022/08/30 06:03:23;;;;;;;8.90;7.67;;;;;;;;;;5095985;28;20598;-95
2022/08/30 06:05:50;;;;;;;15.33;9.90;;;;;;;;;;5094950;28;20679;-92
2022/08/30 06:08:17;;;;;;;11.57;8.50;;;;;;;;;;5095013;28;20211;-94
2022/08/30 06:10:45;;;;;;;9.43;8.30;;;;;;;;;;5094177;28;20256;-95
2022/08/30 06:13:13;;;;;;;11.67;8.43;;;;;;;;;;5093794;28;20223;-94
2022/08/30 06:15:42;;;;;;;8.70;7.67;;;;;;;;;;5092410;28;20201;-94
2022/08/30 06:18:09;;;;;;;9.23;7.73;;;;;;;;;;5093691;28;20207;-94
2022/08/30 06:20:42;;;;;;;8.43;7.63;;;;;;;;;;5094205;28;20266;-94
2022/08/30 06:23:09;;;;;;;8.50;7.70;;;;;;;;;;5080420;28;20232;-94
2022/08/30 06:25:37;;;;;;;9.73;8.60;;;;;;;;;;5092727;28;20222;-93
2022/08/30 06:28:04;;;;;;;11.27;8.70;;;;;;;;;;5093028;28;20230;-95
2022/08/30 06:30:31;;;;;;;8.83;7.67;;;;;;;;;;5093455;28;20725;-94
2022/08/30 06:32:58;;;;;;;11.83;8.63;;;;;;;;;;5107069;28;20697;-94
2022/08/30 06:35:25;;;;;;;7.50;6.77;;;;;;;;;;5093736;28;20458;-92
2022/08/30 06:37:55;;;;;;;10.20;8.03;;;;;;;;;;5093153;28;20204;-94
2022/08/30 06:40:22;;;;;;;11.07;7.80;;;;;;;;;;5093205;28;20200;-94
2022/08/30 06:42:49;;;;;;;10.47;7.17;;;;;;;;;;5093266;28;20230;-94
2022/08/30 06:45:16;;;;;;;12.07;7.50;;;;;;;;;;5100211;28;20204;-94
2022/08/30 06:47:44;;;;;;;7.17;6.40;;;;;;;;;;5100091;28;20212;-94
2022/08/30 06:50:12;;;;;;;8.77;6.93;;;;;;;;;;5092197;28;20223;-94
2022/08/30 06:52:39;;;;;;;8.10;7.30;;;;;;;;;;5087316;28;20234;-93
2022/08/30 06:55:11;;;;;;;7.17;6.57;;;;;;;;;;5092663;28;20208;-92
2022/08/30 06:57:38;;;;;;;8.70;6.90;;;;;;;;;;5085770;28;20207;-94
2022/08/30 07:00:07;;;;;;;7.63;5.97;;;;;;;;;;5100174;28;20284;-89
2022/08/30 07:02:34;;;;;;;8.70;6.70;;;;;;;;;;5093535;28;20201;-92
2022/08/30 07:05:01;;;;;;;7.53;6.73;;;;;;;;;;5092753;28;20208;-92
2022/08/30 07:07:28;;;;;;;11.47;6.17;;;;;;;;;;5092994;28;20212;-94
2022/08/30 07:09:55;;;;;;;9.03;7.13;;;;;;;;;;5092818;28;20314;-94
2022/08/30 07:12:23;;;;;;;7.20;6.50;;;;;;;;;;5093003;28;20211;-94
2022/08/30 07:14:50;;;;;;;7.55;6.18;;;;;;;;;;5092782;28;20204;-93
2022/08/30 07:20:02;;;;;;;6.38;5.88;;;;;;;;;;5092370;28;20219;-93
2022/08/30 07:22:29;;;;;;;9.77;6.15;;;;;;;;;;5092727;28;20294;-93
2022/08/30 07:24:56;;;;;;;9.00;5.90;;;;;;;;;;5092674;28;20269;-91
2022/08/30 07:27:24;;;;;;;7.00;6.05;;;;;;;;;;5105938;28;20211;-94
2022/08/30 07:29:51;;;;;;;7.65;5.65;;;;;;;;;;5092626;28;20235;-93
2022/08/30 07:32:18;;;;;;;9.77;5.80;;;;;;;;;;5091809;28;20211;-92
2022/08/30 07:34:45;;;;;;;11.52;5.85;;;;;;;;;;5092211;28;20253;-94
2022/08/30 07:37:12;;;;;;;11.48;5.60;;;;;;;;;;5092375;28;20207;-94
2022/08/30 07:39:38;;;;;;;6.10;5.30;;;;;;;;;;5091876;28;20219;-94
2022/08/30 07:42:05;;;;;;;7.35;5.78;;;;;;;;;;5092129;28;20601;-90
2022/08/30 07:44:34;;;;;;;6.45;5.35;;;;;;;;;;5092108;28;20704;-92
2022/08/30 07:47:01;;;;;;;7.38;5.43;;;;;;;;;;5091941;28;20707;-95
2022/08/30 07:49:27;;;;;;;7.90;5.47;;;;;;;;;;5091941;28;20208;-91
2022/08/30 07:51:54;;;;;;;11.05;5.63;;;;;;;;;;5091862;28;20345;-92
2022/08/30 07:54:21;;;;;;;6.03;5.45;;;;;;;;;;5096363;28;20200;-92
2022/08/30 07:56:48;;;;;;;9.70;6.18;;;;;;;;;;5091548;28;20204;-87
2022/08/30 07:59:15;;;;;;;12.95;5.55;;;;;;;;;;5106063;28;20634;-92
2022/08/30 08:01:43;;;;;;;6.93;6.07;;;;;;;;;;5092059;28;20212;-94
2022/08/30 08:04:10;;;;;;;6.18;5.57;;;;;;;;;;5092177;28;20212;-91
2022/08/30 08:06:38;;;;;;;5.88;5.32;;;;;;;;;;5092080;28;20254;-93
2022/08/30 08:09:05;;;;;;;8.32;5.85;;;;;;;;;;5091723;28;20273;-94
2022/08/30 08:11:34;;;;;;;6.63;5.70;;;;;;;;;;5091466;28;20303;-91
2022/08/30 08:14:01;;;;;;;6.47;5.88;;;;;;;;;;5091748;28;20226;-93
2022/08/30 08:16:31;;;;;;;9.50;6.28;;;;;;;;;;5091550;28;20613;-88
2022/08/30 08:18:59;;;;;;;5.63;5.10;;;;;;;;;;5106219;28;20635;-90
2022/08/30 08:21:27;;;;;;;9.80;6.57;;;;;;;;;;5091527;28;20216;-90
2022/08/30 08:23:54;;;;;;;7.63;5.80;;;;;;;;;;5091695;28;20287;-90
2022/08/30 08:26:24;;;;;;;8.10;6.30;;;;;;;;;;5091162;28;20202;-90
2022/08/30 08:28:51;;;;;;;12.50;6.70;;;;;;;;;;5091582;28;20228;-91
2022/08/30 08:31:20;;;;;;;9.38;6.20;;;;;;;;;;5091196;28;20221;-92
2022/08/30 08:33:47;;;;;;;9.40;5.88;;;;;;;;;;5091663;28;20230;-91
2022/08/30 08:36:17;;;;;;;6.53;5.88;;;;;;;;;;5091636;28;20213;-92
2022/08/30 08:38:44;;;;;;;7.75;5.55;;;;;;;;;;5091905;28;20211;-92
2022/08/30 08:41:23;;;;;;;5.97;5.32;;;;;;;;;;5094909;28;20196;-91
2022/08/30 08:43:50;;;;;;;6.00;5.47;;;;;;;;;;5095239;28;20192;-92
2022/08/30 08:46:21;;;;;;;10.68;5.43;;;;;;;;;;5095225;28;20243;-92
2022/08/30 08:48:50;;;;;;;5.63;5.03;;;;;;;;;;5095146;28;20200;-92
2022/08/30 08:54:07;;;;;;;5.60;5.10;;;;;;;;;;5094875;28;20287;-91
2022/08/30 08:56:35;;;;;;;6.97;5.65;;;;;;;;;;5095221;28;20726;-90
2022/08/30 08:59:02;;;;;;;6.50;5.75;;;;;;;;;;5094881;28;20593;-91
2022/08/30 09:01:30;;;;;;;6.03;5.45;;;;;;;;;;5095053;28;20698;-91
2022/08/30 09:03:59;;;;;;;6.22;5.72;;;;;;;;;;5094386;28;20208;-92
2022/08/30 09:06:52;;;;;;;7.43;6.13;;;;;;;;;;5094483;28;20265;-92
2022/08/30 09:09:22;;;;;;;5.70;5.13;;;;;;;;;;5092368;28;20200;-92
2022/08/30 09:11:50;;;;;;;5.68;5.15;;;;;;;;;;5094538;28;20658;-91
2022/08/30 09:14:20;;;;;;;5.22;4.75;;;;;;;;;;5094301;28;20733;-90
2022/08/30 09:16:53;;;;;;;8.93;5.30;;;;;;;;;;5094710;28;20227;-91
2022/08/30 09:19:32;;;;;;;6.13;5.15;;;;;;;;;;5094368;28;20196;-86
2022/08/30 09:22:04;;;;;;;5.82;5.32;;;;;;;;;;5105478;28;20195;-90
2022/08/30 09:24:39;;;;;;;6.85;5.18;;;;;;;;;;5096449;28;20613;-91
2022/08/30 09:27:36;;;;;;;8.05;5.93;;;;;;;;;;5094186;28;20208;-88
2022/08/30 09:30:07;;;;;;;9.02;5.68;;;;;;;;;;5093662;28;20232;-88
2022/08/30 09:32:37;;;;;;;6.90;5.68;;;;;;;;;;5093714;28;20235;-88
2022/08/30 09:35:07;;;;;;;7.22;5.47;;;;;;;;;;5094454;28;20659;-91
2022/08/30 09:37:38;;;;;;;9.85;5.85;;;;;;;;;;5094502;28;20204;-90
2022/08/30 09:40:13;;;;;;;6.80;5.60;;;;;;;;;;5079984;28;20223;-89
2022/08/30 09:42:41;;;;;;;9.20;5.30;;;;;;;;;;5094156;28;20208;-86
2022/08/30 09:45:19;;;;;;;8.23;6.28;;;;;;;;;;5093620;28;20239;-88
2022/08/30 09:47:45;;;;;;;6.05;5.20;;;;;;;;;;5093506;28;20204;-91
2022/08/30 09:50:15;;;;;;;5.93;5.43;;;;;;;;;;5093245;28;20208;-87
2022/08/30 09:52:50;;;;;;;7.72;5.35;;;;;;;;;;5093655;28;20220;-91
2022/08/30 09:55:27;;;;;;;8.55;6.00;;;;;;;;;;5075689;28;20204;-87
2022/08/30 09:57:59;;;;;;;5.65;4.95;;;;;;;;;;5086785;28;20235;-91
2022/08/30 10:00:30;;;;;;;6.95;5.47;;;;;;;;;;5093522;28;20215;-87
2022/08/30 10:03:16;;;;;;;8.05;5.55;;;;;;;;;;5092911;28;20586;-89
2022/08/30 10:05:56;;;;;;;9.60;5.63;;;;;;;;;;5090750;28;20208;-87
2022/08/30 10:08:31;;;;;;;6.50;5.90;;;;;;;;;;5092881;28;20204;-86
2022/08/30 10:11:00;;;;;;;9.23;5.15;;;;;;;;;;5091226;28;20219;-88
2022/08/30 10:13:36;;;;;;;5.57;5.15;;;;;;;;;;5092999;28;20205;-91
2022/08/30 10:16:13;;;;;;;7.82;5.65;;;;;;;;;;5093056;28;20208;-89
2022/08/30 10:18:46;;;;;;;6.10;5.47;;;;;;;;;;5092957;28;20682;-87
2022/08/30 10:21:16;;;;;;;7.50;5.18;;;;;;;;;;5092361;28;20205;-87
2022/08/30 10:23:47;;;;;;;11.30;6.15;;;;;;;;;;5092785;28;20207;-89
2022/08/30 10:26:18;;;;;;;12.50;5.57;;;;;;;;;;5092371;28;20207;-88
2022/08/30 10:28:48;;;;;;;7.10;5.65;;;;;;;;;;5093074;28;20211;-88
2022/08/30 10:31:20;;;;;;;7.65;5.75;;;;;;;;;;5092607;28;20220;-89
2022/08/30 10:33:48;;;;;;;7.63;5.63;;;;;;;;;;5092785;28;20215;-89
2022/08/30 10:36:15;;;;;;;9.25;5.35;;;;;;;;;;5092203;28;20212;-87
2022/08/30 10:38:47;;;;;;;6.82;5.30;;;;;;;;;;5092433;28;20231;-89
2022/08/30 10:41:22;;;;;;;12.80;6.00;;;;;;;;;;5092590;28;20200;-87
2022/08/30 10:44:06;;;;;;;8.75;5.45;;;;;;;;;;5092456;28;20208;-86
2022/08/30 10:46:36;;;;;;;7.95;5.88;;;;;;;;;;5091735;28;20671;-88
2022/08/30 10:49:05;;;;;;;8.90;5.90;;;;;;;;;;5092735;28;20200;-87
2022/08/30 10:51:34;;;;;;;6.57;5.43;;;;;;;;;;5092006;28;20223;-90
2022/08/30 10:54:08;;;;;;;9.45;5.70;;;;;;;;;;5092207;28;20208;-86
2022/08/30 10:56:38;;;;;;;6.03;5.43;;;;;;;;;;5091656;28;20227;-89
2022/08/30 10:59:05;;;;;;;5.45;5.05;;;;;;;;;;5092298;28;20233;-89
2022/08/30 11:01:42;;;;;;;5.95;5.40;;;;;;;;;;5091599;28;20209;-89
2022/08/30 11:04:31;;;;;;;7.47;5.70;;;;;;;;;;5091768;28;20204;-87
2022/08/30 11:07:04;;;;;;;10.07;5.25;;;;;;;;;;5091163;28;20629;-86
2022/08/30 11:09:43;;;;;;;5.93;4.95;;;;;;;;;;5060234;28;20200;-87
2022/08/30 11:12:31;;;;;;;7.18;5.35;;;;;;;;;;5091633;28;20224;-88
2022/08/30 11:15:00;;;;;;;6.05;5.53;;;;;;;;;;5091616;28;20196;-88
2022/08/30 11:17:30;;;;;;;9.13;5.38;;;;;;;;;;5091648;28;20226;-87
2022/08/30 11:19:59;;;;;;;10.98;5.65;;;;;;;;;;5091715;28;20212;-87
2022/08/30 11:22:29;;;;;;;5.85;5.35;;;;;;;;;;5091462;28;20671;-87
2022/08/30 11:25:04;;;;;;;7.03;5.82;;;;;;;;;;5091318;28;20197;-88
2022/08/30 11:27:43;;;;;;;6.15;5.15;;;;;;;;;;5091281;28;20208;-87
2022/08/30 11:30:51;;;;;;;6.25;5.03;;;;;;;;;;5091263;28;20230;-88
2022/08/30 11:33:46;;;;;;;6.50;5.25;;;;;;;;;;5077245;28;20725;-87
2022/08/30 11:37:05;;;;;;;7.15;5.38;;;;;;;;;;5091261;28;20196;-87
2022/08/30 11:39:45;;;;;;;8.07;5.80;;;;;;;;;;5091410;28;20679;-86
2022/08/30 11:42:26;;;;;;;6.22;5.07;;;;;;;;;;5091198;28;20212;-86
2022/08/30 11:44:53;;;;;;;6.00;5.35;;;;;;;;;;5090962;28;20208;-88
2022/08/30 11:47:40;;;;;;;5.88;5.22;;;;;;;;;;5101087;28;20204;-86
2022/08/30 11:50:14;;;;;;;6.20;5.13;;;;;;;;;;5092321;28;20196;-87
2022/08/30 11:52:47;;;;;;;6.47;5.47;;;;;;;;;;5090724;28;20241;-86
2022/08/30 11:55:38;;;;;;;5.47;5.07;;;;;;;;;;5090974;28;20747;-88
2022/08/30 11:58:18;;;;;;;5.40;4.85;;;;;;;;;;5090855;28;20208;-88
2022/08/30 12:00:47;;;;;;;5.32;4.90;;;;;;;;;;5091039;28;20207;-85
2022/08/30 12:03:31;;;;;;;7.75;5.65;;;;;;;;;;5090282;28;20257;-86
2022/08/30 12:05:59;;;;;;;15.05;6.05;;;;;;;;;;5090198;28;20279;-86
2022/08/30 12:08:53;;;;;;;7.00;5.45;;;;;;;;;;5090782;28;20265;-87
2022/08/30 12:12:01;;;;;;;7.25;4.63;;;;;;;;;;5075540;28;20208;-86
2022/08/30 12:14:53;;;;;;;5.20;4.70;;;;;;;;;;5093509;28;20682;-87
2022/08/30 12:20:23;;;;;;;11.23;5.45;;;;;;;;;;5094754;28;20627;-86
2022/08/30 12:22:52;;;;;;;8.98;5.47;;;;;;;;;;5098328;28;20191;-87
2022/08/30 12:25:26;;;;;;;6.60;5.30;;;;;;;;;;5103873;28;20712;-87
2022/08/30 12:28:08;;;;;;;6.00;5.18;;;;;;;;;;5094513;28;20200;-86
2022/08/30 12:30:39;;;;;;;9.20;4.95;;;;;;;;;;5094155;28;20310;-87
2022/08/30 12:33:06;;;;;;;7.95;4.97;;;;;;;;;;5094312;28;20220;-87
2022/08/30 12:35:34;;;;;;;5.50;4.78;;;;;;;;;;5094317;28;20215;-86
2022/08/30 12:38:04;;;;;;;5.55;5.15;;;;;;;;;;5094216;28;20257;-86
2022/08/30 12:40:33;;;;;;;7.63;5.55;;;;;;;;;;5093850;28;20204;-85
2022/08/30 12:43:03;;;;;;;8.73;5.53;;;;;;;;;;5107951;28;20691;-87
2022/08/30 12:45:32;;;;;;;7.68;5.85;;;;;;;;;;5094002;28;20200;-85
2022/08/30 12:48:03;;;;;;;8.48;5.30;;;;;;;;;;5094136;28;20201;-86
2022/08/30 12:50:34;;;;;;;6.05;5.38;;;;;;;;;;5093761;28;20201;-87
2022/08/30 12:53:04;;;;;;;8.25;5.03;;;;;;;;;;5093562;28;20235;-86
2022/08/30 12:55:33;;;;;;;8.82;5.20;;;;;;;;;;5093971;28;20200;-86
2022/08/30 12:58:02;;;;;;;6.72;4.97;;;;;;;;;;5093847;28;20204;-86
2022/08/30 13:00:31;;;;;;;6.35;4.93;;;;;;;;;;5093822;28;20208;-86
2022/08/30 13:03:00;;;;;;;6.45;5.25;;;;;;;;;;5093707;28;20283;-87
2022/08/30 13:05:35;;;;;;;5.78;4.97;;;;;;;;;;5093622;28;20204;-86
2022/08/30 13:08:15;;;;;;;8.98;5.30;;;;;;;;;;5094085;28;20211;-86
2022/08/30 13:10:56;;;;;;;7.18;4.65;;;;;;;;;;5094101;28;20235;-87
2022/08/30 13:13:32;;;;;;;5.72;4.90;;;;;;;;;;5093311;28;20710;-86
2022/08/30 13:16:11;;;;;;;6.97;5.55;;;;;;;;;;5093687;28;20203;-84
2022/08/30 13:18:40;;;;;;;5.57;5.15;;;;;;;;;;5093683;28;20203;-86
2022/08/30 13:21:22;;;;;;;8.05;5.35;;;;;;;;;;5093125;28;20257;-86
2022/08/30 13:23:50;;;;;;;9.48;5.10;;;;;;;;;;5093173;28;20204;-86
2022/08/30 13:26:17;;;;;;;6.47;5.40;;;;;;;;;;5092417;28;20629;-85
2022/08/30 13:28:49;;;;;;;8.20;6.05;;;;;;;;;;5092820;28;20201;-86
2022/08/30 13:31:16;;;;;;;10.48;5.35;;;;;;;;;;5093039;28;20196;-86
2022/08/30 13:34:01;;;;;;;7.20;5.72;;;;;;;;;;5092856;28;20224;-86
2022/08/30 13:36:30;;;;;;;6.07;5.45;;;;;;;;;;5092490;28;20274;-85
2022/08/30 13:38:58;;;;;;;5.22;4.72;;;;;;;;;;5093008;28;20201;-86
2022/08/30 13:41:28;;;;;;;6.57;5.60;;;;;;;;;;5095353;28;20210;-86
2022/08/30 13:43:55;;;;;;;7.35;5.05;;;;;;;;;;5103436;28;20192;-86
2022/08/30 13:46:23;;;;;;;5.15;4.65;;;;;;;;;;5092646;28;20207;-85
2022/08/30 13:48:51;;;;;;;11.20;5.55;;;;;;;;;;5093278;28;20249;-87
2022/08/30 13:51:18;;;;;;;7.13;5.95;;;;;;;;;;5092511;28;20682;-86
2022/08/30 13:53:45;;;;;;;7.10;5.43;;;;;;;;;;5092403;28;20223;-86
2022/08/30 13:56:12;;;;;;;5.78;5.28;;;;;;;;;;5092475;28;20204;-86
2022/08/30 13:58:39;;;;;;;7.85;5.68;;;;;;;;;;5092419;28;20239;-86
2022/08/30 14:01:06;;;;;;;7.95;5.78;;;;;;;;;;5092510;28;20219;-86
2022/08/30 14:03:32;;;;;;;5.68;5.13;;;;;;;;;;5092283;28;20258;-86
2022/08/30 14:06:00;;;;;;;5.97;5.32;;;;;;;;;;5092110;28;20200;-86
2022/08/30 14:08:29;;;;;;;6.40;5.78;;;;;;;;;;5092087;28;20200;-84
2022/08/30 14:10:57;;;;;;;5.65;5.18;;;;;;;;;;5092107;28;20203;-86
2022/08/30 14:13:27;;;;;;;10.77;6.20;;;;;;;;;;5092135;28;20224;-85
2022/08/30 14:15:54;;;;;;;7.63;6.18;;;;;;;;;;5092337;28;20291;-85
2022/08/30 14:18:22;;;;;;;8.00;5.68;;;;;;;;;;5092288;28;20200;-86
2022/08/30 14:20:49;;;;;;;9.55;6.22;;;;;;;;;;5091667;28;20204;-85
2022/08/30 14:23:17;;;;;;;6.28;5.68;;;;;;;;;;5092542;28;20211;-86
2022/08/30 14:25:44;;;;;;;6.93;5.38;;;;;;;;;;5092024;28;20212;-86
2022/08/30 14:28:11;;;;;;;5.53;5.07;;;;;;;;;;5077667;28;20298;-86
2022/08/30 14:30:39;;;;;;;6.82;5.57;;;;;;;;;;5091604;28;20763;-85
2022/08/30 14:33:06;;;;;;;6.40;5.65;;;;;;;;;;5106244;28;20624;-86
2022/08/30 14:35:32;;;;;;;8.75;5.90;;;;;;;;;;5091517;28;20219;-85
2022/08/30 14:37:59;;;;;;;9.25;6.18;;;;;;;;;;5090894;28;20216;-86
2022/08/30 14:40:27;;;;;;;6.30;5.50;;;;;;;;;;5091803;28;20277;-86
2022/08/30 14:42:54;;;;;;;10.18;6.03;;;;;;;;;;5091851;28;20207;-86
2022/08/30 14:45:21;;;;;;;6.88;5.00;;;;;;;;;;5091661;28;20211;-86
2022/08/30 14:47:48;;;;;;;8.45;6.15;;;;;;;;;;5091736;28;20208;-85
2022/08/30 14:50:15;;;;;;;10.55;5.75;;;;;;;;;;5091465;28;20213;-86
2022/08/30 14:52:42;;;;;;;6.80;6.20;;;;;;;;;;5091422;28;20216;-86
2022/08/30 14:55:11;;;;;;;6.88;5.55;;;;;;;;;;5091454;28;20197;-85
2022/08/30 14:57:40;;;;;;;9.38;5.43;;;;;;;;;;5091629;28;20291;-87
2022/08/30 15:00:09;;;;;;;6.00;5.47;;;;;;;;;;5091212;28;20643;-85
2022/08/30 15:02:41;;;;;;;7.07;5.90;;;;;;;;;;5091121;28;20204;-87
2022/08/30 15:05:08;;;;;;;6.35;5.68;;;;;;;;;;5091435;28;20208;-85
2022/08/30 15:07:35;;;;;;;7.63;5.75;;;;;;;;;;5091313;28;20200;-87
2022/08/30 15:10:03;;;;;;;7.75;5.30;;;;;;;;;;5091026;28;20207;-86
2022/08/30 15:12:29;;;;;;;8.45;5.68;;;;;;;;;;5090987;28;20228;-86
2022/08/30 15:14:58;;;;;;;6.53;5.80;;;;;;;;;;5090936;28;20200;-84
2022/08/30 15:17:25;;;;;;;7.78;5.45;;;;;;;;;;5091264;28;20652;-85
2022/08/30 15:19:52;;;;;;;10.10;6.35;;;;;;;;;;5090625;28;20210;-85
2022/08/30 15:22:18;;;;;;;9.07;6.60;;;;;;;;;;5091204;28;20697;-85
2022/08/30 15:24:45;;;;;;;7.63;6.68;;;;;;;;;;5090867;28;20204;-86
2022/08/30 15:27:12;;;;;;;8.80;6.65;;;;;;;;;;5090726;28;20212;-85
2022/08/30 15:29:41;;;;;;;6.95;6.13;;;;;;;;;;5090764;28;20281;-86
2022/08/30 15:32:09;;;;;;;8.50;6.72;;;;;;;;;;5090635;28;20607;-86
2022/08/30 15:34:36;;;;;;;13.07;7.30;;;;;;;;;;5090370;28;20721;-86
2022/08/30 15:37:03;;;;;;;9.45;6.53;;;;;;;;;;5090709;28;20721;-85
2022/08/30 15:39:31;;;;;;;9.30;7.22;;;;;;;;;;5090965;28;20216;-86
2022/08/30 15:41:57;;;;;;;7.75;6.78;;;;;;;;;;5090440;28;20697;-85
2022/08/30 15:44:24;;;;;;;9.68;7.60;;;;;;;;;;5090831;28;20211;-86
2022/08/30 15:46:51;;;;;;;12.38;6.97;;;;;;;;;;5090793;28;20196;-86
2022/08/30 15:49:22;;;;;;;7.43;6.65;;;;;;;;;;5090186;28;20200;-85
2022/08/30 15:51:50;;;;;;;11.23;7.00;;;;;;;;;;5090342;28;20200;-85
2022/08/30 15:54:19;;;;;;;7.43;6.75;;;;;;;;;;5090885;28;20247;-87
2022/08/30 15:56:46;;;;;;;7.00;6.45;;;;;;;;;;5090274;28;20207;-86
2022/08/30 15:59:14;;;;;;;7.65;6.25;;;;;;;;;;5090567;28;20211;-86
2022/08/30 16:01:41;;;;;;;11.00;7.25;;;;;;;;;;5090603;28;20253;-87
2022/08/30 16:04:07;;;;;;;10.68;6.90;;;;;;;;;;5090672;28;20208;-86
2022/08/30 16:06:37;;;;;;;11.77;6.75;;;;;;;;;;5090419;28;20200;-86
2022/08/30 16:09:05;;;;;;;9.05;6.53;;;;;;;;;;5090710;28;20200;-86
2022/08/30 16:11:32;;;;;;;7.43;6.80;;;;;;;;;;5089985;28;20216;-85
2022/08/30 16:13:58;;;;;;;9.13;7.72;;;;;;;;;;5090520;28;20231;-86
2022/08/30 16:16:27;;;;;;;10.23;7.35;;;;;;;;;;5090391;28;20209;-85
2022/08/30 16:18:54;;;;;;;7.57;6.85;;;;;;;;;;5090576;28;20707;-85
2022/08/30 16:21:23;;;;;;;7.82;7.18;;;;;;;;;;5090214;28;20717;-85
2022/08/30 16:23:51;;;;;;;8.93;6.95;;;;;;;;;;5089989;28;20680;-86
2022/08/30 16:26:18;;;;;;;7.60;6.70;;;;;;;;;;5090062;28;20203;-85
2022/08/30 16:28:45;;;;;;;7.85;7.10;;;;;;;;;;5090303;28;20196;-86
2022/08/30 16:31:14;;;;;;;11.82;6.88;;;;;;;;;;5089817;28;20208;-86
2022/08/30 16:33:41;;;;;;;8.07;7.22;;;;;;;;;;5090336;28;20231;-86
2022/08/30 16:36:10;;;;;;;8.52;6.65;;;;;;;;;;5090229;28;20207;-87
2022/08/30 16:38:37;;;;;;;7.78;6.63;;;;;;;;;;5090536;28;20206;-87
2022/08/30 16:41:09;;;;;;;7.95;7.22;;;;;;;;;;5090199;28;20207;-87
2022/08/30 16:43:36;;;;;;;7.22;6.63;;;;;;;;;;5091114;28;20624;-88
2022/08/30 16:46:04;;;;;;;8.85;7.22;;;;;;;;;;5091754;28;20216;-88
2022/08/30 16:48:31;;;;;;;7.25;6.53;;;;;;;;;;5091415;28;20203;-88
2022/08/30 16:50:59;;;;;;;9.40;6.57;;;;;;;;;;5091218;28;20200;-89
2022/08/30 16:53:26;;;;;;;9.18;6.90;;;;;;;;;;5076946;28;20729;-90
2022/08/30 16:55:53;;;;;;;7.82;6.43;;;;;;;;;;5077506;28;20219;-87
2022/08/30 16:58:22;;;;;;;10.80;7.10;;;;;;;;;;5091821;28;20609;-89
2022/08/30 17:00:49;;;;;;;8.88;7.82;;;;;;;;;;5093206;28;20204;-88
2022/08/30 17:03:17;;;;;;;8.52;7.30;;;;;;;;;;5095238;28;20207;-88
2022/08/30 17:05:44;;;;;;;7.15;6.53;;;;;;;;;;5095382;28;20200;-88
2022/08/30 17:08:11;;;;;;;9.70;6.80;;;;;;;;;;5095395;28;20227;-89
2022/08/30 17:10:39;;;;;;;14.40;7.50;;;;;;;;;;5095067;28;20212;-89
2022/08/30 17:13:06;;;;;;;10.93;7.60;;;;;;;;;;5094799;28;20671;-89
2022/08/30 17:15:35;;;;;;;6.30;5.78;;;;;;;;;;5094196;28;20212;-88
2022/08/30 17:18:01;;;;;;;8.20;7.38;;;;;;;;;;5081196;28;20208;-90
2022/08/30 17:20:30;;;;;;;7.38;5.97;;;;;;;;;;5095013;28;20208;-89
2022/08/30 17:22:57;;;;;;;7.68;7.00;;;;;;;;;;5094980;28;20230;-93
2022/08/30 17:25:24;;;;;;;8.02;6.38;;;;;;;;;;5084146;28;20236;-90
2022/08/30 17:27:51;;;;;;;12.88;8.05;;;;;;;;;;5091929;28;20201;-91
2022/08/30 17:30:18;;;;;;;14.60;8.45;;;;;;;;;;5094498;28;20239;-91
2022/08/30 17:32:46;;;;;;;15.15;7.32;;;;;;;;;;5094331;28;20596;-89
2022/08/30 17:35:13;;;;;;;8.93;8.10;;;;;;;;;;5094469;28;20261;-90
2022/08/30 17:37:40;;;;;;;8.85;7.78;;;;;;;;;;5094785;28;20215;-90
2022/08/30 17:40:08;;;;;;;8.82;7.93;;;;;;;;;;5094677;28;20254;-89
2022/08/30 17:42:36;;;;;;;11.57;8.50;;;;;;;;;;5094620;28;20566;-89
2022/08/30 17:45:05;;;;;;;9.15;8.05;;;;;;;;;;5094607;28;20261;-89
2022/08/30 17:47:32;;;;;;;9.20;8.20;;;;;;;;;;5094690;28;20231;-90
2022/08/30 17:50:01;;;;;;;8.70;7.80;;;;;;;;;;5094802;28;20216;-89
2022/08/30 17:52:28;;;;;;;7.78;6.97;;;;;;;;;;5094692;28;20623;-87
2022/08/30 17:54:56;;;;;;;9.23;6.90;;;;;;;;;;5094265;28;20666;-87
2022/08/30 17:57:23;;;;;;;9.80;7.60;;;;;;;;;;5094323;28;20204;-89
2022/08/30 17:59:50;;;;;;;8.52;7.72;;;;;;;;;;5094042;28;20200;-89
2022/08/30 18:02:18;;;;;;;8.20;7.22;;;;;;;;;;5093959;28;20714;-90
2022/08/30 18:04:45;;;;;;;7.57;6.72;;;;;;;;;;5094427;28;20219;-89
2022/08/30 18:07:15;;;;;;;8.45;7.70;;;;;;;;;;5094175;28;20208;-88
2022/08/30 18:09:43;;;;;;;8.40;7.17;;;;;;;;;;5094337;28;20675;-90
2022/08/30 18:12:10;;;;;;;7.83;7.13;;;;;;;;;;5093720;28;20197;-90
2022/08/30 18:14:37;;;;;;;8.57;7.63;;;;;;;;;;5073660;28;20772;-90
2022/08/30 18:17:04;;;;;;;8.63;7.70;;;;;;;;;;5073681;28;20279;-90
2022/08/30 18:19:34;;;;;;;11.30;8.27;;;;;;;;;;5078538;28;20211;-90
2022/08/30 18:22:03;;;;;;;10.33;7.43;;;;;;;;;;5093826;28;20193;-90
2022/08/30 18:24:31;;;;;;;10.02;8.00;;;;;;;;;;5093570;28;20670;-89
2022/08/30 18:26:58;;;;;;;9.93;7.63;;;;;;;;;;5093538;28;20265;-90
2022/08/30 18:29:25;;;;;;;8.70;8.00;;;;;;;;;;5093865;28;20249;-84
2022/08/30 18:31:52;;;;;;;10.07;7.63;;;;;;;;;;5091603;28;20683;-82
2022/08/30 18:34:19;;;;;;;8.60;7.70;;;;;;;;;;5091465;28;20717;-82
2022/08/30 18:36:46;;;;;;;8.10;7.37;;;;;;;;;;5091636;28;20641;-82
2022/08/30 18:39:13;;;;;;;9.30;8.03;;;;;;;;;;5073895;28;20200;-82
2022/08/30 18:41:41;;;;;;;12.07;8.47;;;;;;;;;;5091419;28;20207;-82
2022/08/30 18:44:09;;;;;;;9.53;7.47;;;;;;;;;;5091622;28;20200;-82
2022/08/30 18:46:35;;;;;;;9.80;8.03;;;;;;;;;;5094945;28;20188;-83
2022/08/30 18:49:02;;;;;;;9.77;7.47;;;;;;;;;;5102191;28;20582;-83
2022/08/30 18:51:29;;;;;;;8.50;7.60;;;;;;;;;;5091379;28;20686;-82
2022/08/30 18:53:57;;;;;;;10.60;7.77;;;;;;;;;;5090918;28;20217;-82
2022/08/30 18:56:27;;;;;;;12.90;7.33;;;;;;;;;;5091527;28;20203;-82
2022/08/30 18:58:55;;;;;;;10.93;7.67;;;;;;;;;;5090866;28;20265;-81
2022/08/30 19:01:22;;;;;;;9.73;7.67;;;;;;;;;;5091668;28;20204;-82
2022/08/30 19:03:49;;;;;;;9.25;7.50;;;;;;;;;;5091248;28;20204;-82
2022/08/30 19:06:15;;;;;;;10.93;7.83;;;;;;;;;;5090820;28;20200;-82
2022/08/30 19:08:44;;;;;;;14.97;7.07;;;;;;;;;;5090963;28;20254;-83
2022/08/30 19:11:11;;;;;;;10.40;7.00;;;;;;;;;;5077055;28;20204;-82
2022/08/30 19:13:38;;;;;;;8.60;7.70;;;;;;;;;;5091317;28;20224;-82
2022/08/30 19:16:09;;;;;;;9.50;8.13;;;;;;;;;;5090599;28;20197;-83
2022/08/30 19:18:36;;;;;;;10.20;7.47;;;;;;;;;;5090929;28;20296;-83
2022/08/30 19:21:03;;;;;;;12.00;7.00;;;;;;;;;;5090619;28;20270;-82
2022/08/30 19:23:31;;;;;;;8.83;6.47;;;;;;;;;;5090487;28;20196;-82
2022/08/30 19:25:59;;;;;;;11.20;7.10;;;;;;;;;;5090271;28;20300;-82
2022/08/30 19:28:28;;;;;;;9.93;6.53;;;;;;;;;;5090997;28;20230;-82
2022/08/30 19:30:55;;;;;;;11.70;7.03;;;;;;;;;;5090560;28;20208;-82
2022/08/30 19:33:23;;;;;;;7.10;6.37;;;;;;;;;;5090719;28;20294;-81
2022/08/30 19:35:50;;;;;;;9.43;6.33;;;;;;;;;;5090528;28;20211;-82
2022/08/30 19:38:17;;;;;;;10.77;6.97;;;;;;;;;;5090464;28;20671;-82
2022/08/30 19:40:43;;;;;;;6.80;6.20;;;;;;;;;;5090805;28;20203;-82
2022/08/30 19:43:15;;;;;;;9.13;5.77;;;;;;;;;;5090648;28;20203;-82
2022/08/30 19:45:41;;;;;;;7.67;5.37;;;;;;;;;;5090236;28;20215;-82
2022/08/30 19:48:08;;;;;;;11.30;5.50;;;;;;;;;;5090341;28;20204;-82
2022/08/30 19:50:37;;;;;;;10.90;4.80;;;;;;;;;;5090344;28;20705;-83
2022/08/30 19:53:05;;;;;;;10.57;4.90;;;;;;;;;;5105147;28;20195;-82
2022/08/30 19:55:33;;;;;;;7.00;4.33;;;;;;;;;;5090771;28;20285;-83
2022/08/30 19:58:00;;;;;;;9.20;5.13;;;;;;;;;;5090646;28;20192;-82
2022/08/30 20:00:27;;;;;;;7.57;5.67;;;;;;;;;;5090328;28;20204;-82
2022/08/30 20:02:54;;;;;;;9.03;5.03;;;;;;;;;;5090640;28;20215;-82
2022/08/30 20:05:23;;;;;;;10.17;5.47;;;;;;;;;;5090249;28;20254;-83
2022/08/30 20:07:51;;;;;;;12.80;5.73;;;;;;;;;;5083469;28;20248;-82
2022/08/30 20:10:19;;;;;;;9.63;5.60;;;;;;;;;;5097190;28;20234;-82
2022/08/30 20:12:46;;;;;;;11.53;5.33;;;;;;;;;;5090646;28;20196;-83
2022/08/30 20:15:15;;;;;;;11.53;5.33;;;;;;;;;;5090073;28;20228;-83
2022/08/30 20:17:46;;;;;;;6.23;5.00;;;;;;;;;;5090640;28;20679;-82
2022/08/30 20:20:14;;;;;;;10.40;5.07;;;;;;;;;;5089606;28;20200;-82
2022/08/30 20:22:41;;;;;;;11.13;6.47;;;;;;;;;;5090036;28;20204;-83
2022/08/30 20:25:12;;;;;;;13.20;6.10;;;;;;;;;;5090155;28;20212;-84
2022/08/30 20:27:40;;;;;;;10.87;6.40;;;;;;;;;;5090365;28;20196;-82
2022/08/30 20:30:09;;;;;;;8.13;6.43;;;;;;;;;;5090234;28;20268;-83
2022/08/30 20:32:37;;;;;;;11.63;6.10;;;;;;;;;;5090387;28;20204;-82